Time;durP1;ratioP1;P1;durP2;ratioP2;P2;SDS_P1;SDS_P2;PMS_P1;PMS_P2;Temp;Humidity;BMP_temperature;BMP_pressure;BME280_temperature;BME280_humidity;BME280_pressure;Samples;Min_cycle;Max_cycle;Signal;HPM_P1;HPM_P2
2023/10/17 00:00:32;;;;;;;16.77;5.93;;;;;;;;;;4990345;28;20428;-65
2023/10/17 00:02:59;;;;;;;12.07;5.72;;;;;;;;;;4990097;28;20397;-67
2023/10/17 00:05:25;;;;;;;19.95;6.65;;;;;;;;;;4988865;28;20046;-65
2023/10/17 00:07:50;;;;;;;17.15;6.68;;;;;;;;;;4989222;28;20378;-63
2023/10/17 00:10:17;;;;;;;13.57;5.60;;;;;;;;;;4988073;28;20706;-65
2023/10/17 00:12:50;;;;;;;14.55;6.28;;;;;;;;;;4983758;28;20101;-65
2023/10/17 00:15:27;;;;;;;11.93;5.65;;;;;;;;;;4989273;28;20022;-65
2023/10/17 00:20:51;;;;;;;11.40;5.28;;;;;;;;;;5001640;28;20026;-65
2023/10/17 00:23:20;;;;;;;12.05;5.47;;;;;;;;;;5005406;28;20048;-66
2023/10/17 00:25:45;;;;;;;10.55;5.07;;;;;;;;;;4995279;28;20030;-66
2023/10/17 00:28:11;;;;;;;13.13;5.07;;;;;;;;;;4991702;28;20509;-66
2023/10/17 00:30:38;;;;;;;8.95;4.57;;;;;;;;;;4986750;28;20105;-63
2023/10/17 00:33:05;;;;;;;9.30;5.05;;;;;;;;;;4989499;28;20040;-66
2023/10/17 00:35:36;;;;;;;8.25;4.80;;;;;;;;;;4989002;28;20030;-65
2023/10/17 00:38:05;;;;;;;12.30;5.50;;;;;;;;;;4983154;28;20611;-65
2023/10/17 00:43:14;;;;;;;11.50;4.93;;;;;;;;;;4989684;28;20017;-63
2023/10/17 00:45:45;;;;;;;9.15;5.40;;;;;;;;;;4985905;28;20023;-65
2023/10/17 00:48:22;;;;;;;12.35;4.80;;;;;;;;;;4989600;28;20030;-65
2023/10/17 00:50:56;;;;;;;12.38;5.53;;;;;;;;;;4984590;28;20026;-65
2023/10/17 00:53:22;;;;;;;9.02;5.03;;;;;;;;;;4985254;28;20029;-65
2023/10/17 00:55:51;;;;;;;11.77;5.75;;;;;;;;;;4988577;28;20026;-65
2023/10/17 00:58:18;;;;;;;12.98;4.65;;;;;;;;;;4992291;28;20595;-65
2023/10/17 01:00:48;;;;;;;10.80;5.25;;;;;;;;;;4992549;28;20014;-64
2023/10/17 01:03:15;;;;;;;8.52;4.95;;;;;;;;;;4992600;28;20097;-65
2023/10/17 01:05:57;;;;;;;9.82;4.90;;;;;;;;;;4991679;28;20026;-65
2023/10/17 01:08:22;;;;;;;15.98;5.30;;;;;;;;;;4992400;28;20132;-65
2023/10/17 01:10:48;;;;;;;10.95;5.38;;;;;;;;;;4992873;28;20581;-63
2023/10/17 01:13:13;;;;;;;15.30;6.18;;;;;;;;;;4988774;28;20026;-64
2023/10/17 01:15:38;;;;;;;15.70;5.70;;;;;;;;;;4992263;28;20026;-63
2023/10/17 01:18:04;;;;;;;12.55;5.50;;;;;;;;;;4992869;28;20022;-64
2023/10/17 01:20:30;;;;;;;11.88;5.35;;;;;;;;;;4992551;28;20553;-64
2023/10/17 01:23:00;;;;;;;10.25;4.63;;;;;;;;;;4992453;28;20466;-65
2023/10/17 01:25:26;;;;;;;11.63;5.53;;;;;;;;;;4991912;28;20490;-65
2023/10/17 01:27:55;;;;;;;11.40;5.13;;;;;;;;;;4992871;28;20033;-65
2023/10/17 01:30:21;;;;;;;12.82;5.30;;;;;;;;;;4988661;28;20022;-64
2023/10/17 01:32:48;;;;;;;9.88;5.30;;;;;;;;;;5015054;23;20418;-67
2023/10/17 01:35:13;;;;;;;10.35;5.45;;;;;;;;;;5009057;28;20029;-66
2023/10/17 01:37:39;;;;;;;8.00;4.85;;;;;;;;;;5010372;28;20056;-65
2023/10/17 01:40:09;;;;;;;10.00;4.40;;;;;;;;;;5011340;28;20014;-67
2023/10/17 01:42:34;;;;;;;13.68;5.50;;;;;;;;;;5010209;28;20078;-67
2023/10/17 01:45:00;;;;;;;13.75;6.10;;;;;;;;;;5026382;28;20071;-67
2023/10/17 01:47:26;;;;;;;9.82;5.28;;;;;;;;;;5028037;28;20045;-68
2023/10/17 01:49:51;;;;;;;11.40;6.53;;;;;;;;;;5028031;28;20009;-64
2023/10/17 01:52:16;;;;;;;16.90;5.93;;;;;;;;;;5030015;28;20009;-68
2023/10/17 01:54:47;;;;;;;12.68;5.78;;;;;;;;;;5027092;28;20334;-66
2023/10/17 01:57:12;;;;;;;11.50;6.05;;;;;;;;;;5028480;28;20193;-66
2023/10/17 01:59:38;;;;;;;11.85;6.30;;;;;;;;;;5028894;28;20202;-67
2023/10/17 02:02:03;;;;;;;12.23;6.10;;;;;;;;;;5027597;28;20049;-67
2023/10/17 02:04:30;;;;;;;17.40;5.32;;;;;;;;;;5027454;28;20571;-65
2023/10/17 02:06:55;;;;;;;17.50;6.15;;;;;;;;;;5027677;28;20021;-65
2023/10/17 02:09:24;;;;;;;13.13;6.60;;;;;;;;;;5027343;28;20310;-67
2023/10/17 02:11:54;;;;;;;9.57;5.65;;;;;;;;;;5026661;28;20523;-64
2023/10/17 02:14:20;;;;;;;11.38;6.15;;;;;;;;;;5027881;28;20109;-64
2023/10/17 02:16:45;;;;;;;11.02;5.82;;;;;;;;;;5028000;28;20112;-66
2023/10/17 02:19:10;;;;;;;12.57;5.97;;;;;;;;;;5029362;28;20022;-66
2023/10/17 02:21:39;;;;;;;13.13;6.60;;;;;;;;;;5027143;28;20029;-66
2023/10/17 02:24:07;;;;;;;12.88;5.90;;;;;;;;;;5029237;28;20022;-67
2023/10/17 02:26:42;;;;;;;10.65;6.25;;;;;;;;;;5027477;28;20025;-65
2023/10/17 02:29:11;;;;;;;14.38;6.30;;;;;;;;;;5029507;28;20115;-67
2023/10/17 02:31:36;;;;;;;13.95;6.20;;;;;;;;;;5025873;28;20029;-67
2023/10/17 02:34:02;;;;;;;15.98;7.18;;;;;;;;;;5028842;28;20587;-67
2023/10/17 02:36:27;;;;;;;12.98;5.80;;;;;;;;;;5027878;28;20520;-67
2023/10/17 02:38:52;;;;;;;25.10;7.07;;;;;;;;;;5028723;28;20041;-67
2023/10/17 02:41:28;;;;;;;11.55;5.88;;;;;;;;;;5028172;28;20441;-68
2023/10/17 02:43:54;;;;;;;12.68;6.32;;;;;;;;;;5029052;28;20017;-67
2023/10/17 02:46:19;;;;;;;13.52;5.60;;;;;;;;;;5027660;28;20010;-67
2023/10/17 02:48:48;;;;;;;11.77;5.85;;;;;;;;;;5028730;28;20461;-64
2023/10/17 02:51:47;;;;;;;10.48;6.28;;;;;;;;;;5028684;28;20076;-66
2023/10/17 02:54:05;;;;;;;10.18;6.20;;;;;;;;;;5025940;28;20065;-65
2023/10/17 02:56:35;;;;;;;12.98;6.40;;;;;;;;;;5026947;28;20052;-66
2023/10/17 02:59:09;;;;;;;12.73;6.25;;;;;;;;;;5026856;28;20040;-67
2023/10/17 03:01:36;;;;;;;9.90;6.07;;;;;;;;;;5027281;28;20064;-67
2023/10/17 03:04:08;;;;;;;11.18;6.03;;;;;;;;;;5027947;28;20107;-67
2023/10/17 03:06:40;;;;;;;16.17;6.97;;;;;;;;;;4999667;28;20112;-67
2023/10/17 03:14:23;;;;;;;14.75;6.88;;;;;;;;;;5024197;28;20105;-64
2023/10/17 03:16:52;;;;;;;12.88;6.40;;;;;;;;;;5027370;28;20022;-66
2023/10/17 03:19:27;;;;;;;16.75;6.65;;;;;;;;;;5020925;28;20022;-66
2023/10/17 03:21:58;;;;;;;12.05;6.50;;;;;;;;;;5025587;28;20070;-67
2023/10/17 03:24:39;;;;;;;11.60;7.10;;;;;;;;;;5023514;28;20484;-65
2023/10/17 03:27:06;;;;;;;17.17;7.25;;;;;;;;;;5022719;28;20377;-65
2023/10/17 03:29:34;;;;;;;20.30;6.72;;;;;;;;;;5021814;28;20029;-66
2023/10/17 03:32:03;;;;;;;15.18;8.80;;;;;;;;;;5026248;28;20025;-65
2023/10/17 03:34:38;;;;;;;;;;;;;;;;;;5026395;28;20369;-67
2023/10/17 03:39:54;;;;;;;17.02;9.30;;;;;;;;;;5010653;28;20025;-67
2023/10/17 03:42:43;;;;;;;17.52;9.02;;;;;;;;;;5025832;28;20093;-65
2023/10/17 03:45:23;;;;;;;17.88;8.50;;;;;;;;;;5024231;28;20014;-66
2023/10/17 03:47:53;;;;;;;18.80;9.00;;;;;;;;;;5026548;28;20033;-67
2023/10/17 03:50:31;;;;;;;14.38;7.55;;;;;;;;;;5015022;28;20131;-65
2023/10/17 03:53:05;;;;;;;13.93;7.18;;;;;;;;;;5023462;28;20117;-67
2023/10/17 03:55:31;;;;;;;19.90;7.85;;;;;;;;;;5024673;28;20373;-66
2023/10/17 03:57:59;;;;;;;19.20;7.55;;;;;;;;;;5025765;28;20326;-69
2023/10/17 04:00:33;;;;;;;14.80;6.85;;;;;;;;;;5009226;28;20051;-67
2023/10/17 04:02:58;;;;;;;14.82;8.40;;;;;;;;;;5025122;28;20477;-66
2023/10/17 04:05:24;;;;;;;14.38;7.97;;;;;;;;;;5024508;28;20042;-65
2023/10/17 04:07:52;;;;;;;12.00;7.03;;;;;;;;;;5025325;28;20033;-68
2023/10/17 04:10:20;;;;;;;15.25;7.07;;;;;;;;;;5026640;28;20096;-68
2023/10/17 04:12:49;;;;;;;17.88;7.68;;;;;;;;;;5020023;28;20468;-66
2023/10/17 04:15:18;;;;;;;12.18;6.82;;;;;;;;;;5024225;28;20436;-67
2023/10/17 04:17:46;;;;;;;13.80;7.60;;;;;;;;;;5026482;28;20028;-67
2023/10/17 04:20:11;;;;;;;11.93;6.55;;;;;;;;;;5025876;28;20048;-68
2023/10/17 04:22:39;;;;;;;12.95;6.55;;;;;;;;;;5026832;28;20148;-67
2023/10/17 04:25:20;;;;;;;17.10;7.15;;;;;;;;;;5024723;28;20025;-67
2023/10/17 04:27:54;;;;;;;13.07;6.50;;;;;;;;;;5007151;28;20037;-67
2023/10/17 04:30:22;;;;;;;12.55;6.22;;;;;;;;;;5020471;28;20056;-68
2023/10/17 04:32:52;;;;;;;18.85;7.93;;;;;;;;;;5025732;28;20112;-68
2023/10/17 04:35:20;;;;;;;16.35;7.03;;;;;;;;;;5025003;28;20311;-66
2023/10/17 04:38:02;;;;;;;20.50;8.18;;;;;;;;;;5026359;28;20013;-68
2023/10/17 04:40:28;;;;;;;12.13;6.70;;;;;;;;;;5024042;28;20014;-66
2023/10/17 04:45:23;;;;;;;20.25;7.90;;;;;;;;;;5022641;28;20086;-65
2023/10/17 04:48:09;;;;;;;14.48;7.18;;;;;;;;;;5024798;28;20021;-65
2023/10/17 04:50:44;;;;;;;18.70;8.00;;;;;;;;;;5023384;28;20025;-67
2023/10/17 04:53:09;;;;;;;15.30;7.15;;;;;;;;;;5025761;28;20156;-67
2023/10/17 04:55:40;;;;;;;16.13;8.00;;;;;;;;;;5024398;28;20057;-66
2023/10/17 04:58:30;;;;;;;14.18;7.20;;;;;;;;;;5025797;28;20014;-66
2023/10/17 05:01:13;;;;;;;14.82;7.85;;;;;;;;;;5025284;28;20026;-67
2023/10/17 05:03:46;;;;;;;16.83;6.40;;;;;;;;;;5025187;28;20032;-67
2023/10/17 05:09:12;;;;;;;17.92;7.75;;;;;;;;;;5020460;28;20029;-68
2023/10/17 06:17:20;;;;;;;17.30;10.55;;;;;;;;;;5022244;28;20029;-66
2023/10/17 06:19:46;;;;;;;17.63;9.32;;;;;;;;;;5028771;28;20183;-67
2023/10/17 06:30:05;;;;;;;16.98;8.85;;;;;;;;;;5029743;28;20461;-68
2023/10/17 06:35:03;;;;;;;22.40;9.57;;;;;;;;;;5027848;28;19913;-67
2023/10/17 06:37:32;;;;;;;26.30;10.38;;;;;;;;;;5028941;28;20235;-67
2023/10/17 06:39:59;;;;;;;19.73;8.25;;;;;;;;;;5021800;28;20084;-68
2023/10/17 06:42:38;;;;;;;24.63;8.55;;;;;;;;;;5029219;28;20090;-67
2023/10/17 06:45:10;;;;;;;18.23;8.00;;;;;;;;;;5020474;28;20022;-68
2023/10/17 06:47:41;;;;;;;28.05;8.48;;;;;;;;;;5028339;28;20029;-66
2023/10/17 06:52:46;;;;;;;15.23;7.15;;;;;;;;;;5028685;28;20030;-67
2023/10/17 06:55:21;;;;;;;21.00;7.10;;;;;;;;;;5027802;28;20018;-67
2023/10/17 06:57:50;;;;;;;14.25;7.05;;;;;;;;;;5028730;28;20033;-65
2023/10/17 07:00:16;;;;;;;16.00;7.53;;;;;;;;;;5028313;28;20029;-68
2023/10/17 07:02:48;;;;;;;19.85;7.93;;;;;;;;;;5031247;28;20017;-68
2023/10/17 07:05:14;;;;;;;20.65;8.13;;;;;;;;;;5026903;28;20445;-67
2023/10/17 07:07:40;;;;;;;17.85;7.72;;;;;;;;;;5029260;28;20021;-66
2023/10/17 07:10:19;;;;;;;16.55;7.43;;;;;;;;;;5011045;28;20029;-67
2023/10/17 07:13:08;;;;;;;13.40;6.47;;;;;;;;;;5027220;28;20029;-68
2023/10/17 07:15:33;;;;;;;14.02;6.13;;;;;;;;;;5026971;28;20121;-66
2023/10/17 07:23:32;;;;;;;18.33;6.00;;;;;;;;;;5028892;28;20361;-65
2023/10/17 07:25:57;;;;;;;13.23;6.13;;;;;;;;;;5019544;28;20021;-67
2023/10/17 07:28:22;;;;;;;11.77;6.13;;;;;;;;;;5010836;28;20105;-68
2023/10/17 07:30:57;;;;;;;13.88;6.07;;;;;;;;;;5027911;28;20531;-65
2023/10/17 07:33:23;;;;;;;16.55;6.75;;;;;;;;;;5028028;28;20067;-67
2023/10/17 07:35:57;;;;;;;12.45;6.53;;;;;;;;;;5026892;28;20452;-65
2023/10/17 07:38:27;;;;;;;16.17;6.60;;;;;;;;;;5027913;28;20006;-67
2023/10/17 07:40:58;;;;;;;14.52;7.43;;;;;;;;;;5027760;28;20068;-67
2023/10/17 07:43:24;;;;;;;17.48;7.00;;;;;;;;;;5028345;28;20021;-67
2023/10/17 07:45:56;;;;;;;15.77;7.28;;;;;;;;;;5026649;28;20506;-66
2023/10/17 07:48:25;;;;;;;13.13;6.40;;;;;;;;;;5027168;28;20105;-67
2023/10/17 07:50:50;;;;;;;;;;;;;;;;;;5026597;28;20018;-66
2023/10/17 07:53:19;;;;;;;21.50;6.97;;;;;;;;;;5028704;28;19963;-66
2023/10/17 07:55:48;;;;;;;16.70;6.32;;;;;;;;;;5027179;28;20021;-68
2023/10/17 07:58:17;;;;;;;15.23;6.25;;;;;;;;;;5010606;28;20488;-65
2023/10/17 08:00:43;;;;;;;12.23;6.75;;;;;;;;;;5027326;28;20036;-68
2023/10/17 08:03:20;;;;;;;14.93;7.47;;;;;;;;;;5026589;28;20425;-69
2023/10/17 08:06:08;;;;;;;13.80;6.50;;;;;;;;;;5026250;28;20017;-65
2023/10/17 08:08:35;;;;;;;13.00;6.40;;;;;;;;;;5027184;28;20041;-67
2023/10/17 08:11:04;;;;;;;16.50;6.32;;;;;;;;;;5027615;28;20010;-67
2023/10/17 08:13:29;;;;;;;13.48;5.50;;;;;;;;;;5026877;28;20487;-64
2023/10/17 08:16:05;;;;;;;12.98;5.93;;;;;;;;;;5026081;28;20026;-69
2023/10/17 08:18:39;;;;;;;9.18;5.13;;;;;;;;;;5025114;28;20060;-65
2023/10/17 08:23:49;;;;;;;8.43;4.72;;;;;;;;;;5027846;28;20028;-69
2023/10/17 08:26:17;;;;;;;10.75;4.30;;;;;;;;;;5023775;28;20025;-67
2023/10/17 08:36:42;;;;;;;13.27;4.47;;;;;;;;;;5013876;28;20072;-65
2023/10/17 08:42:00;;;;;;;10.77;4.25;;;;;;;;;;5019483;28;20025;-64
2023/10/17 08:44:31;;;;;;;10.05;4.30;;;;;;;;;;5013227;28;20022;-68
2023/10/17 08:46:57;;;;;;;9.18;3.95;;;;;;;;;;5019208;28;20095;-68
2023/10/17 08:49:22;;;;;;;11.10;4.57;;;;;;;;;;5015939;28;20026;-67
2023/10/17 08:51:48;;;;;;;10.18;3.55;;;;;;;;;;5022889;28;20032;-67
2023/10/17 08:54:13;;;;;;;14.30;4.00;;;;;;;;;;5020798;28;20021;-67
2023/10/17 08:56:39;;;;;;;9.68;3.75;;;;;;;;;;5018383;28;20476;-66
2023/10/17 08:59:05;;;;;;;12.40;4.25;;;;;;;;;;5023816;28;20068;-68
2023/10/17 09:01:30;;;;;;;10.32;4.55;;;;;;;;;;5026020;28;20013;-69
2023/10/17 09:03:56;;;;;;;10.88;4.38;;;;;;;;;;5026775;28;20017;-64
2023/10/17 09:08:55;;;;;;;11.63;3.85;;;;;;;;;;5026234;28;20060;-69
2023/10/17 09:11:30;;;;;;;9.10;3.75;;;;;;;;;;5015726;28;20512;-69
2023/10/17 09:16:48;;;;;;;8.70;3.35;;;;;;;;;;5007789;28;20127;-66
2023/10/17 09:19:14;;;;;;;12.15;3.53;;;;;;;;;;5015335;28;20389;-69
2023/10/17 09:21:44;;;;;;;15.25;3.55;;;;;;;;;;5014407;28;20014;-68
2023/10/17 09:24:32;;;;;;;8.52;3.22;;;;;;;;;;5014895;28;20113;-66
2023/10/17 09:26:58;;;;;;;8.57;3.50;;;;;;;;;;5012223;28;20034;-69
2023/10/17 09:29:27;;;;;;;6.88;3.45;;;;;;;;;;5012420;28;20033;-67
2023/10/17 09:31:52;;;;;;;;;;;;;;;;;;5009854;28;20326;-66
2023/10/17 09:34:17;;;;;;;10.38;3.38;;;;;;;;;;5012851;28;19982;-69
2023/10/17 09:36:46;;;;;;;8.75;3.58;;;;;;;;;;5013611;28;20075;-67
2023/10/17 09:39:18;;;;;;;5.28;2.78;;;;;;;;;;5015375;28;20388;-69
2023/10/17 09:41:43;;;;;;;8.65;3.35;;;;;;;;;;5006841;28;20693;-68
2023/10/17 09:44:10;;;;;;;7.20;3.15;;;;;;;;;;5018726;28;20009;-68
2023/10/17 09:46:35;;;;;;;11.20;4.30;;;;;;;;;;5008984;28;20022;-67
2023/10/17 09:49:02;;;;;;;8.77;3.70;;;;;;;;;;5012998;28;20506;-68
2023/10/17 09:51:33;;;;;;;8.80;2.97;;;;;;;;;;4994723;28;20033;-69
2023/10/17 09:53:58;;;;;;;12.63;3.67;;;;;;;;;;5017293;28;20095;-67
2023/10/17 09:56:29;;;;;;;9.35;2.80;;;;;;;;;;5015355;28;20033;-68
2023/10/17 09:58:56;;;;;;;5.15;2.70;;;;;;;;;;5015131;28;20021;-66
2023/10/17 10:01:24;;;;;;;8.80;3.15;;;;;;;;;;4996147;28;20018;-68
2023/10/17 10:03:53;;;;;;;10.15;3.88;;;;;;;;;;5016443;28;20030;-68
2023/10/17 10:06:26;;;;;;;5.57;2.70;;;;;;;;;;5012255;28;20128;-67
2023/10/17 10:09:13;;;;;;;9.82;3.15;;;;;;;;;;5014272;28;20389;-69
2023/10/17 10:11:50;;;;;;;8.95;2.17;;;;;;;;;;5011807;28;20117;-69
2023/10/17 10:14:16;;;;;;;4.15;1.60;;;;;;;;;;5013907;28;20026;-68
2023/10/17 10:16:53;;;;;;;5.20;2.07;;;;;;;;;;5014233;28;20027;-66
2023/10/17 10:19:19;;;;;;;6.90;2.33;;;;;;;;;;5014498;28;20294;-69
2023/10/17 10:21:52;;;;;;;5.88;2.20;;;;;;;;;;5010958;28;20111;-68
2023/10/17 10:24:18;;;;;;;5.75;2.38;;;;;;;;;;5014482;28;20104;-68
2023/10/17 10:26:43;;;;;;;9.55;2.17;;;;;;;;;;5011535;28;20144;-67
2023/10/17 10:29:22;;;;;;;8.02;2.45;;;;;;;;;;5014408;28;20094;-68
2023/10/17 10:31:47;;;;;;;8.68;1.95;;;;;;;;;;5009947;28;20109;-66
2023/10/17 10:34:12;;;;;;;6.80;1.52;;;;;;;;;;5016625;28;20088;-67
2023/10/17 10:36:39;;;;;;;6.45;1.65;;;;;;;;;;5008311;28;20040;-69
2023/10/17 10:39:12;;;;;;;5.88;1.95;;;;;;;;;;5011671;28;20026;-66
2023/10/17 10:41:37;;;;;;;5.03;1.98;;;;;;;;;;5009464;28;20112;-67
2023/10/17 10:44:03;;;;;;;6.20;1.50;;;;;;;;;;4997901;28;20017;-70
2023/10/17 10:46:30;;;;;;;4.18;1.58;;;;;;;;;;5011483;28;20083;-66
2023/10/17 10:48:56;;;;;;;6.13;1.77;;;;;;;;;;5012480;28;20022;-66
2023/10/17 10:51:24;;;;;;;3.65;1.58;;;;;;;;;;5009577;28;20533;-67
2023/10/17 10:53:54;;;;;;;3.55;1.38;;;;;;;;;;5014266;28;20022;-66
2023/10/17 10:56:21;;;;;;;9.10;1.35;;;;;;;;;;5011868;28;20025;-66
2023/10/17 10:58:56;;;;;;;4.85;1.50;;;;;;;;;;5010091;28;20022;-69
2023/10/17 11:01:22;;;;;;;4.63;1.65;;;;;;;;;;5011103;28;20026;-69
2023/10/17 11:03:48;;;;;;;4.70;1.45;;;;;;;;;;5015050;28;20442;-66
2023/10/17 11:06:14;;;;;;;3.42;1.83;;;;;;;;;;5009313;28;20061;-68
2023/10/17 11:08:43;;;;;;;5.25;1.40;;;;;;;;;;5011261;28;20540;-68
2023/10/17 11:11:10;;;;;;;4.05;1.58;;;;;;;;;;5011507;28;20101;-66
2023/10/17 11:13:36;;;;;;;3.92;1.70;;;;;;;;;;4993500;28;20520;-67
2023/10/17 11:16:04;;;;;;;7.40;2.63;;;;;;;;;;5013205;28;20610;-68
2023/10/17 11:18:32;;;;;;;6.38;1.73;;;;;;;;;;5014528;28;20085;-70
2023/10/17 11:20:58;;;;;;;8.30;1.85;;;;;;;;;;5006309;28;20542;-69
2023/10/17 11:23:26;;;;;;;11.43;2.08;;;;;;;;;;4993447;28;20026;-67
2023/10/17 11:25:52;;;;;;;5.30;1.67;;;;;;;;;;5012475;28;20100;-67
2023/10/17 11:28:18;;;;;;;6.28;1.55;;;;;;;;;;5010553;28;20029;-68
2023/10/17 11:30:45;;;;;;;5.35;1.38;;;;;;;;;;5007416;28;20030;-68
2023/10/17 11:33:11;;;;;;;3.78;1.40;;;;;;;;;;5007912;28;20129;-68
2023/10/17 11:36:03;;;;;;;4.78;1.80;;;;;;;;;;5013403;28;20128;-69
2023/10/17 11:38:35;;;;;;;4.68;1.60;;;;;;;;;;5008565;28;20025;-67
2023/10/17 11:41:01;;;;;;;4.70;1.85;;;;;;;;;;5010749;28;20044;-68
2023/10/17 11:43:34;;;;;;;3.78;1.42;;;;;;;;;;5010287;28;20045;-68
2023/10/17 11:46:00;;;;;;;5.82;1.80;;;;;;;;;;5011850;28;20502;-68
2023/10/17 11:48:36;;;;;;;5.53;1.90;;;;;;;;;;5012646;28;20029;-66
2023/10/17 11:51:13;;;;;;;4.57;1.60;;;;;;;;;;5008743;28;20111;-69
2023/10/17 11:53:57;;;;;;;4.47;1.70;;;;;;;;;;5009047;28;20366;-69
2023/10/17 11:56:22;;;;;;;3.15;1.92;;;;;;;;;;5011441;28;20021;-67
2023/10/17 11:58:50;;;;;;;5.45;1.85;;;;;;;;;;5016035;28;20036;-70
2023/10/17 12:01:16;;;;;;;3.33;1.70;;;;;;;;;;5011489;28;20018;-69
2023/10/17 12:03:41;;;;;;;4.03;1.88;;;;;;;;;;5008023;28;20025;-69
2023/10/17 12:06:13;;;;;;;6.10;2.15;;;;;;;;;;5010984;28;20025;-69
2023/10/17 12:08:39;;;;;;;3.13;1.55;;;;;;;;;;5015351;28;20025;-68
2023/10/17 12:11:04;;;;;;;6.25;1.77;;;;;;;;;;5007992;28;20515;-68
2023/10/17 12:13:29;;;;;;;2.78;1.52;;;;;;;;;;5010014;28;20029;-66
2023/10/17 12:15:56;;;;;;;2.97;1.52;;;;;;;;;;5007049;28;20029;-69
2023/10/17 12:18:24;;;;;;;5.10;1.60;;;;;;;;;;5011375;28;20083;-72
2023/10/17 12:20:49;;;;;;;5.03;1.60;;;;;;;;;;5013629;28;20500;-69
2023/10/17 12:23:18;;;;;;;4.45;1.27;;;;;;;;;;5010366;28;20033;-69
2023/10/17 12:25:44;;;;;;;2.20;1.33;;;;;;;;;;5009120;28;20087;-67
2023/10/17 12:28:10;;;;;;;7.22;1.60;;;;;;;;;;5010770;28;20162;-65
2023/10/17 12:30:39;;;;;;;4.28;1.63;;;;;;;;;;4993161;28;20113;-67
2023/10/17 12:33:05;;;;;;;4.82;1.50;;;;;;;;;;5008293;28;20444;-68
2023/10/17 12:35:30;;;;;;;7.78;2.03;;;;;;;;;;5012008;28;20030;-66
2023/10/17 12:38:14;;;;;;;6.10;2.03;;;;;;;;;;5014103;28;20040;-68
2023/10/17 12:40:40;;;;;;;5.70;1.73;;;;;;;;;;5008835;28;20143;-70
2023/10/17 12:43:07;;;;;;;3.00;1.45;;;;;;;;;;5008055;28;20485;-66
2023/10/17 12:45:33;;;;;;;4.47;1.98;;;;;;;;;;5007912;28;20041;-66
2023/10/17 12:47:58;;;;;;;4.63;1.65;;;;;;;;;;5011703;28;20685;-68
2023/10/17 12:50:24;;;;;;;5.55;2.70;;;;;;;;;;5011117;28;20040;-67
2023/10/17 12:52:49;;;;;;;6.10;2.75;;;;;;;;;;5007117;28;20105;-68
2023/10/17 12:55:14;;;;;;;10.93;2.70;;;;;;;;;;5012218;28;20032;-66
2023/10/17 12:57:40;;;;;;;8.93;3.15;;;;;;;;;;5012128;28;20064;-68
2023/10/17 13:00:09;;;;;;;4.63;2.10;;;;;;;;;;5009518;28;20510;-66
2023/10/17 13:02:35;;;;;;;5.90;2.53;;;;;;;;;;5004610;28;20240;-67
2023/10/17 13:05:01;;;;;;;11.43;2.28;;;;;;;;;;5008340;28;20030;-68
2023/10/17 13:07:27;;;;;;;5.50;2.33;;;;;;;;;;5009878;28;20022;-69
2023/10/17 13:09:52;;;;;;;8.35;2.70;;;;;;;;;;5012899;28;20028;-69
2023/10/17 13:12:19;;;;;;;4.90;2.42;;;;;;;;;;5007916;28;20434;-69
2023/10/17 13:14:44;;;;;;;5.05;2.40;;;;;;;;;;5020297;28;20156;-69
2023/10/17 13:17:11;;;;;;;10.95;3.53;;;;;;;;;;5018185;28;20052;-69
2023/10/17 13:19:40;;;;;;;6.35;2.80;;;;;;;;;;5019039;28;20051;-67
2023/10/17 13:22:08;;;;;;;4.43;2.20;;;;;;;;;;5019230;28;20022;-69
2023/10/17 13:24:33;;;;;;;9.32;3.03;;;;;;;;;;5029383;28;20009;-67
2023/10/17 13:26:59;;;;;;;7.97;2.50;;;;;;;;;;5020100;28;20188;-68
2023/10/17 13:29:26;;;;;;;5.55;2.33;;;;;;;;;;5023162;28;20761;-68
2023/10/17 13:31:51;;;;;;;4.65;2.17;;;;;;;;;;5025228;28;20021;-69
2023/10/17 13:34:22;;;;;;;2.83;1.63;;;;;;;;;;5022976;28;20133;-67
2023/10/17 13:36:47;;;;;;;5.68;2.05;;;;;;;;;;5023517;28;20028;-68
2023/10/17 13:39:13;;;;;;;3.90;1.60;;;;;;;;;;5013104;28;20025;-69
2023/10/17 13:41:38;;;;;;;6.10;2.00;;;;;;;;;;5006481;28;21628;-67
2023/10/17 13:44:04;;;;;;;6.25;2.42;;;;;;;;;;5024999;28;20022;-65
2023/10/17 13:46:32;;;;;;;8.95;3.38;;;;;;;;;;5023608;28;20461;-68
2023/10/17 13:48:58;;;;;;;7.17;1.90;;;;;;;;;;5022521;28;20389;-66
2023/10/17 13:51:23;;;;;;;3.83;1.63;;;;;;;;;;5026378;28;20571;-67
2023/10/17 13:53:50;;;;;;;7.50;1.85;;;;;;;;;;5026560;28;20105;-70
2023/10/17 13:56:18;;;;;;;6.63;2.28;;;;;;;;;;5025689;28;20028;-70
2023/10/17 13:58:44;;;;;;;12.73;1.90;;;;;;;;;;5025107;28;20037;-68
2023/10/17 14:01:27;;;;;;;5.72;2.15;;;;;;;;;;5005440;28;20032;-68
2023/10/17 14:03:56;;;;;;;5.30;1.90;;;;;;;;;;5028678;28;20102;-68
2023/10/17 14:06:22;;;;;;;7.72;2.40;;;;;;;;;;5027970;28;20014;-68
2023/10/17 14:08:47;;;;;;;4.88;1.88;;;;;;;;;;5028962;28;20032;-66
2023/10/17 14:11:17;;;;;;;6.78;2.08;;;;;;;;;;5030082;28;20113;-69
2023/10/17 14:13:43;;;;;;;4.38;1.92;;;;;;;;;;5026638;28;20037;-68
2023/10/17 14:16:08;;;;;;;4.25;1.88;;;;;;;;;;5028421;28;20036;-66
2023/10/17 14:18:44;;;;;;;7.80;2.05;;;;;;;;;;5029406;28;20029;-68
2023/10/17 14:21:23;;;;;;;4.57;1.67;;;;;;;;;;5023312;28;20453;-68
2023/10/17 14:23:57;;;;;;;6.20;2.13;;;;;;;;;;5003755;28;20353;-67
2023/10/17 14:26:29;;;;;;;18.15;2.50;;;;;;;;;;5027791;28;20377;-65
2023/10/17 14:28:56;;;;;;;11.52;2.20;;;;;;;;;;5027348;28;20021;-67
2023/10/17 14:31:23;;;;;;;4.68;1.77;;;;;;;;;;5025856;28;20029;-67
2023/10/17 14:33:49;;;;;;;6.78;1.88;;;;;;;;;;5028712;28;20060;-68
2023/10/17 14:36:14;;;;;;;7.65;1.73;;;;;;;;;;5027859;28;20049;-67
2023/10/17 14:38:39;;;;;;;6.63;1.80;;;;;;;;;;5029608;28;20075;-70
2023/10/17 14:41:08;;;;;;;5.28;2.28;;;;;;;;;;5029964;28;20465;-67
2023/10/17 14:43:33;;;;;;;;;;;;;;;;;;5028826;28;20601;-66
2023/10/17 14:45:59;;;;;;;14.07;4.07;;;;;;;;;;5009033;28;20284;-69
2023/10/17 14:48:24;;;;;;;8.48;2.90;;;;;;;;;;5028671;28;20539;-67
2023/10/17 14:50:50;;;;;;;8.88;3.53;;;;;;;;;;5023334;28;20101;-68
2023/10/17 14:53:19;;;;;;;10.10;3.60;;;;;;;;;;5023587;28;20101;-66
2023/10/17 14:55:46;;;;;;;5.95;2.78;;;;;;;;;;5019421;28;20539;-69
2023/10/17 14:58:11;;;;;;;5.90;2.47;;;;;;;;;;5028253;28;20041;-67
2023/10/17 15:00:37;;;;;;;7.15;2.72;;;;;;;;;;5024471;28;20227;-68
2023/10/17 15:03:03;;;;;;;6.50;2.17;;;;;;;;;;5019663;28;20096;-67
2023/10/17 15:05:30;;;;;;;5.53;2.20;;;;;;;;;;5009036;28;20076;-68
2023/10/17 15:07:56;;;;;;;6.97;1.98;;;;;;;;;;5011082;28;20025;-67
2023/10/17 15:10:21;;;;;;;11.10;3.15;;;;;;;;;;5013025;28;20034;-68
2023/10/17 15:12:48;;;;;;;8.57;2.22;;;;;;;;;;5011693;28;20033;-69
2023/10/17 15:15:14;;;;;;;9.07;2.38;;;;;;;;;;5011390;28;20483;-68
2023/10/17 15:17:41;;;;;;;5.68;2.30;;;;;;;;;;5012576;28;20038;-68
2023/10/17 15:20:08;;;;;;;5.53;2.40;;;;;;;;;;5012462;28;20017;-67
2023/10/17 15:22:33;;;;;;;7.68;2.45;;;;;;;;;;5007193;28;20090;-67
2023/10/17 15:24:58;;;;;;;6.40;2.45;;;;;;;;;;5015724;28;20144;-68
2023/10/17 15:27:24;;;;;;;5.00;2.00;;;;;;;;;;4994184;28;20025;-68
2023/10/17 15:29:50;;;;;;;6.63;2.17;;;;;;;;;;5010521;28;20025;-67
2023/10/17 15:32:15;;;;;;;4.70;2.17;;;;;;;;;;4993945;28;20029;-67
2023/10/17 15:34:40;;;;;;;5.10;2.20;;;;;;;;;;5009875;28;20045;-66
2023/10/17 15:37:06;;;;;;;7.53;2.10;;;;;;;;;;5012663;28;20029;-67
2023/10/17 15:39:31;;;;;;;8.23;1.83;;;;;;;;;;5014911;28;20013;-68
2023/10/17 15:41:57;;;;;;;4.38;1.70;;;;;;;;;;5011712;28;20021;-70
2023/10/17 15:44:22;;;;;;;6.07;2.17;;;;;;;;;;4991330;28;20411;-69
2023/10/17 15:46:48;;;;;;;8.00;2.35;;;;;;;;;;5010774;28;20045;-70
2023/10/17 15:49:14;;;;;;;10.13;2.67;;;;;;;;;;5010712;28;20029;-66
2023/10/17 15:51:39;;;;;;;8.18;3.17;;;;;;;;;;5008833;28;20088;-69
2023/10/17 15:54:04;;;;;;;7.05;3.22;;;;;;;;;;5013430;28;20014;-69
2023/10/17 15:56:30;;;;;;;8.50;3.53;;;;;;;;;;5009940;28;20021;-69
2023/10/17 15:58:56;;;;;;;5.55;2.97;;;;;;;;;;5013507;28;20029;-67
2023/10/17 16:01:21;;;;;;;5.65;2.58;;;;;;;;;;5011514;28;20033;-69
2023/10/17 16:03:46;;;;;;;5.15;2.92;;;;;;;;;;5013267;28;20029;-70
2023/10/17 16:06:12;;;;;;;8.30;3.03;;;;;;;;;;5008677;28;20029;-65
2023/10/17 16:08:37;;;;;;;5.95;2.85;;;;;;;;;;5013070;28;20061;-67
2023/10/17 16:11:02;;;;;;;5.88;3.10;;;;;;;;;;5011053;28;20208;-66
2023/10/17 16:13:28;;;;;;;7.28;3.10;;;;;;;;;;5012206;28;20048;-70
2023/10/17 16:15:58;;;;;;;5.53;2.83;;;;;;;;;;5011090;28;20025;-68
2023/10/17 16:18:23;;;;;;;16.50;4.25;;;;;;;;;;5012739;28;20044;-68
2023/10/17 16:20:49;;;;;;;8.98;3.28;;;;;;;;;;5010302;28;20812;-71
2023/10/17 16:23:14;;;;;;;10.70;4.05;;;;;;;;;;4994577;28;20029;-65
2023/10/17 16:25:46;;;;;;;6.43;3.10;;;;;;;;;;5010568;28;20033;-67
2023/10/17 16:28:11;;;;;;;6.50;3.05;;;;;;;;;;5010874;28;20125;-69
2023/10/17 16:30:37;;;;;;;7.47;2.92;;;;;;;;;;5012849;28;20148;-66
2023/10/17 16:33:03;;;;;;;6.75;2.70;;;;;;;;;;5009361;28;20021;-68
2023/10/17 16:35:31;;;;;;;9.85;3.10;;;;;;;;;;5009532;28;20520;-70
2023/10/17 16:37:57;;;;;;;7.20;3.38;;;;;;;;;;5010703;28;20029;-69
2023/10/17 16:40:23;;;;;;;10.32;4.40;;;;;;;;;;5012552;28;20044;-69
2023/10/17 16:42:48;;;;;;;6.60;3.50;;;;;;;;;;5011412;28;20073;-70
2023/10/17 16:45:14;;;;;;;8.70;3.88;;;;;;;;;;5012080;28;20081;-66
2023/10/17 16:47:39;;;;;;;11.18;3.72;;;;;;;;;;5012439;28;20127;-70